createdAt,value
2022-11-12T00:00:59.868Z,4.90
2022-11-12T00:01:59.909Z,5.10
2022-11-12T00:02:59.798Z,5.10
2022-11-12T00:03:59.872Z,5.00
2022-11-12T00:04:59.782Z,5.60
2022-11-12T00:05:59.842Z,5.30
2022-11-12T00:06:59.784Z,5.80
2022-11-12T00:07:59.767Z,4.90
2022-11-12T00:08:59.752Z,5.70
2022-11-12T00:09:59.740Z,5.60
2022-11-12T00:10:59.723Z,5.20
2022-11-12T00:11:59.714Z,5.60
2022-11-12T00:12:59.735Z,6.10
2022-11-12T00:13:59.723Z,4.90
2022-11-12T00:14:59.679Z,5.50
2022-11-12T00:15:59.746Z,5.10
2022-11-12T00:16:59.673Z,4.80
2022-11-12T00:17:59.621Z,5.90
2022-11-12T00:18:59.633Z,5.10
2022-11-12T00:20:00.250Z,5.10
2022-11-12T00:20:59.614Z,5.60
2022-11-12T00:21:59.634Z,5.70
2022-11-12T00:22:59.597Z,5.20
2022-11-12T00:23:59.614Z,5.20
2022-11-12T00:24:59.619Z,5.00
2022-11-12T00:25:59.609Z,5.20
2022-11-12T00:26:59.580Z,5.60
2022-11-12T00:27:59.569Z,4.40
2022-11-12T00:28:59.551Z,3.60
2022-11-12T00:29:59.518Z,4.60
2022-11-12T00:30:59.593Z,5.10
2022-11-12T00:31:59.590Z,3.30
2022-11-12T00:32:59.498Z,4.00
2022-11-12T00:33:59.518Z,4.00
2022-11-12T00:35:02.579Z,3.90
2022-11-12T00:36:00.542Z,3.60
2022-11-12T00:36:59.503Z,3.80
2022-11-12T00:37:59.463Z,3.80
2022-11-12T00:38:59.439Z,4.30
2022-11-12T00:39:59.447Z,3.80
2022-11-12T00:40:59.454Z,4.00
2022-11-12T00:41:59.403Z,4.10
2022-11-12T00:42:59.441Z,3.20
2022-11-12T00:43:59.424Z,3.90
2022-11-12T00:44:59.380Z,3.90
2022-11-12T00:45:59.419Z,3.90
2022-11-12T00:46:59.388Z,3.70
2022-11-12T00:47:59.382Z,3.50
2022-11-12T00:48:59.389Z,4.10
2022-11-12T00:49:59.328Z,4.50
2022-11-12T00:50:59.362Z,3.80
2022-11-12T00:51:59.395Z,4.50
2022-11-12T00:52:59.333Z,3.90
2022-11-12T00:53:59.318Z,3.80
2022-11-12T00:54:59.347Z,3.60
2022-11-12T00:55:59.306Z,3.90
2022-11-12T00:56:59.268Z,4.00
2022-11-12T00:57:59.284Z,4.80
2022-11-12T00:58:59.231Z,4.20
2022-11-12T00:59:59.235Z,4.20
2022-11-12T01:00:59.282Z,3.70
2022-11-12T01:01:59.236Z,3.80
2022-11-12T01:02:59.230Z,4.10
2022-11-12T01:03:59.265Z,4.50
2022-11-12T01:04:59.201Z,4.60
2022-11-12T01:05:59.167Z,4.20
2022-11-12T01:06:59.263Z,3.70
2022-11-12T01:07:59.227Z,3.40
2022-11-12T01:08:59.162Z,4.00
2022-11-12T01:09:59.134Z,4.90
2022-11-12T01:10:59.179Z,3.80
2022-11-12T01:11:59.130Z,3.70
2022-11-12T01:12:59.109Z,4.30
2022-11-12T01:13:59.097Z,4.20
2022-11-12T01:14:59.090Z,4.30
2022-11-12T01:15:59.079Z,3.50
2022-11-12T01:16:59.063Z,3.90
2022-11-12T01:17:59.088Z,2.90
2022-11-12T01:18:59.053Z,3.90
2022-11-12T01:19:59.043Z,3.90
2022-11-12T01:20:58.982Z,3.30
2022-11-12T01:21:59.012Z,2.90
2022-11-12T01:22:59.037Z,3.40
2022-11-12T01:23:59.047Z,2.90
2022-11-12T01:24:58.943Z,3.10
2022-11-12T01:25:58.990Z,2.70
2022-11-12T01:26:58.995Z,3.10
2022-11-12T01:27:58.984Z,2.90
2022-11-12T01:28:59.003Z,2.90
2022-11-12T01:29:58.913Z,2.90
2022-11-12T01:30:58.928Z,2.60
2022-11-12T01:31:58.957Z,2.80
2022-11-12T01:32:58.897Z,2.70
2022-11-12T01:33:58.910Z,2.60
2022-11-12T01:34:58.892Z,2.60
2022-11-12T01:35:58.906Z,3.00
2022-11-12T01:36:58.872Z,2.50
2022-11-12T01:37:58.844Z,2.10
2022-11-12T01:38:58.861Z,2.60
2022-11-12T01:39:58.894Z,1.90
2022-11-12T01:40:58.800Z,1.40
2022-11-12T01:41:58.812Z,1.80
2022-11-12T01:42:58.816Z,2.20
2022-11-12T01:43:58.815Z,1.50
2022-11-12T01:44:58.794Z,2.20
2022-11-12T01:45:58.772Z,2.10
2022-11-12T01:46:58.795Z,1.60
2022-11-12T01:47:58.790Z,1.30
2022-11-12T01:48:58.773Z,1.70
2022-11-12T01:49:58.755Z,1.30
2022-11-12T01:50:58.749Z,1.60
2022-11-12T01:51:58.705Z,0.90
2022-11-12T01:52:58.744Z,1.80
2022-11-12T01:53:58.665Z,1.70
2022-11-12T01:54:58.691Z,1.10
2022-11-12T01:55:58.755Z,1.30
2022-11-12T01:56:58.661Z,1.70
2022-11-12T01:57:58.669Z,1.30
2022-11-12T01:58:58.648Z,1.20
2022-11-12T01:59:58.648Z,1.20
2022-11-12T02:00:58.659Z,1.10
2022-11-12T02:01:58.643Z,1.40
2022-11-12T02:02:58.623Z,1.20
2022-11-12T02:03:58.622Z,1.00
2022-11-12T02:04:58.604Z,1.10
2022-11-12T02:05:58.616Z,1.10
2022-11-12T02:06:58.593Z,1.30
2022-11-12T02:07:58.563Z,1.10
2022-11-12T02:08:58.544Z,0.90
2022-11-12T02:09:58.541Z,1.30
2022-11-12T02:10:58.513Z,1.30
2022-11-12T02:11:58.593Z,1.20
2022-11-12T02:12:58.511Z,0.80
2022-11-12T02:13:58.528Z,1.10
2022-11-12T02:14:58.502Z,1.20
2022-11-12T02:15:58.471Z,1.20
2022-11-12T02:16:58.523Z,0.80
2022-11-12T02:17:58.441Z,0.90
2022-11-12T02:18:58.492Z,1.20
2022-11-12T02:19:58.450Z,1.10
2022-11-12T02:20:58.408Z,1.10
2022-11-12T02:21:58.433Z,0.90
2022-11-12T02:22:58.391Z,1.40
2022-11-12T02:23:58.422Z,0.90
2022-11-12T02:24:58.413Z,0.80
2022-11-12T02:25:58.388Z,0.70
2022-11-12T02:26:58.367Z,0.80
2022-11-12T02:27:58.440Z,0.80
2022-11-12T02:28:58.311Z,0.90
2022-11-12T02:29:58.299Z,0.90
2022-11-12T02:30:58.378Z,0.60
2022-11-12T02:31:58.358Z,0.70
2022-11-12T02:44:50.448Z,0.60
2022-11-12T02:45:50.367Z,0.50
2022-11-12T02:46:50.383Z,0.80
2022-11-12T02:47:50.384Z,0.90
2022-11-12T02:48:50.311Z,0.90
2022-11-12T02:49:50.293Z,0.50
2022-11-12T02:50:50.339Z,0.70
2022-11-12T02:51:50.468Z,0.70
2022-11-12T02:52:50.266Z,1.00
2022-11-12T02:53:50.285Z,0.60
2022-11-12T02:54:50.275Z,1.00
2022-11-12T02:55:50.235Z,0.50
2022-11-12T02:56:50.280Z,1.00
2022-11-12T02:57:50.229Z,0.50
2022-11-12T02:58:50.196Z,0.50
2022-11-12T02:59:51.406Z,0.40
2022-11-12T03:00:51.537Z,0.60
2022-11-12T03:01:51.404Z,0.50
2022-11-12T03:02:51.339Z,0.60
2022-11-12T03:03:51.342Z,0.80
2022-11-12T03:04:51.324Z,0.60
2022-11-12T03:05:51.296Z,0.50
2022-11-12T03:06:51.393Z,0.70
2022-11-12T03:07:51.305Z,0.80
2022-11-12T03:08:51.347Z,0.60
2022-11-12T03:09:51.250Z,0.60
2022-11-12T03:10:51.341Z,0.40
2022-11-12T03:11:51.266Z,0.60
2022-11-12T03:12:51.243Z,0.80
2022-11-12T03:13:51.235Z,0.40
2022-11-12T03:14:51.280Z,0.60
2022-11-12T03:15:51.284Z,0.40
2022-11-12T03:16:51.265Z,0.60
2022-11-12T03:17:51.242Z,0.40
2022-11-12T03:18:51.153Z,0.40
2022-11-12T03:19:51.161Z,0.30
2022-11-12T03:20:51.194Z,0.20
2022-11-12T03:21:51.184Z,0.50
2022-11-12T03:22:51.122Z,0.50
2022-11-12T03:23:51.186Z,0.40
2022-11-12T03:24:52.124Z,0.40
2022-11-12T03:25:51.123Z,0.40
2022-11-12T03:26:51.123Z,0.40
2022-11-12T03:27:51.111Z,0.40
2022-11-12T03:28:51.076Z,0.30
2022-11-12T03:29:51.069Z,0.30
2022-11-12T03:30:51.081Z,0.50
2022-11-12T03:31:51.112Z,0.40
2022-11-12T03:32:51.120Z,0.30
2022-11-12T03:33:51.021Z,0.70
2022-11-12T03:34:55.485Z,0.40
2022-11-12T03:35:52.018Z,0.30
2022-11-12T03:36:51.019Z,0.40
2022-11-12T03:37:51.023Z,0.50
2022-11-12T03:38:50.989Z,0.50
2022-11-12T03:39:51.021Z,0.10
2022-11-12T03:40:51.010Z,0.30
2022-11-12T03:41:50.990Z,0.20
2022-11-12T03:42:50.948Z,0.30
2022-11-12T03:43:50.951Z,0.30
2022-11-12T03:44:50.940Z,0.60
2022-11-12T03:45:50.970Z,0.50
2022-11-12T03:46:50.963Z,0.40
2022-11-12T03:47:50.910Z,0.30
2022-11-12T03:48:51.663Z,0.30
2022-11-12T03:49:50.900Z,0.20
2022-11-12T03:50:50.933Z,0.30
2022-11-12T03:51:50.949Z,0.70
2022-11-12T03:52:50.853Z,0.40
2022-11-12T03:53:50.862Z,0.50
2022-11-12T03:54:50.858Z,0.10
2022-11-12T03:55:50.844Z,0.40
2022-11-12T03:56:50.787Z,0.30
2022-11-12T03:57:50.792Z,0.60
2022-11-12T03:58:50.822Z,0.20
2022-11-12T03:59:50.798Z,0.30
2022-11-12T04:00:50.818Z,0.30
2022-11-12T04:01:50.788Z,0.30
2022-11-12T04:02:50.793Z,0.40
2022-11-12T04:03:50.771Z,0.30
2022-11-12T04:04:50.802Z,0.30
2022-11-12T04:05:50.739Z,0.40
2022-11-12T04:06:50.781Z,0.30
2022-11-12T04:07:50.761Z,0.40
2022-11-12T04:08:50.725Z,0.10
2022-11-12T04:09:50.679Z,0.10
2022-11-12T04:10:50.711Z,0.30
2022-11-12T04:11:50.756Z,0.20
2022-11-12T04:12:50.707Z,0.30
2022-11-12T04:13:50.664Z,0.20
2022-11-12T04:14:50.678Z,0.30
2022-11-12T04:15:50.695Z,0.40
2022-11-12T04:16:50.648Z,0.40
2022-11-12T04:17:50.612Z,0.60
2022-11-12T04:18:50.631Z,0.30
2022-11-12T04:19:50.630Z,0.20
2022-11-12T04:20:50.631Z,0.50
2022-11-12T04:21:50.619Z,0.40
2022-11-12T04:22:50.595Z,0.40
2022-11-12T04:23:50.561Z,0.30
2022-11-12T04:24:50.521Z,0.40
2022-11-12T04:25:50.555Z,0.40
2022-11-12T04:26:50.573Z,0.30
2022-11-12T04:27:50.522Z,0.20
2022-11-12T04:28:50.489Z,0.40
2022-11-12T04:29:50.516Z,0.20
2022-11-12T04:30:50.479Z,0.20
2022-11-12T04:31:50.507Z,0.50
2022-11-12T04:32:50.491Z,0.60
2022-11-12T04:33:50.523Z,0.30
2022-11-12T04:34:50.515Z,0.20
2022-11-12T04:35:50.457Z,0.30
2022-11-12T04:36:50.539Z,0.70
2022-11-12T04:37:50.451Z,0.50
2022-11-12T04:38:50.478Z,0.20
2022-11-12T04:39:50.401Z,0.20
2022-11-12T04:40:50.382Z,0.40
2022-11-12T04:41:50.387Z,0.30
2022-11-12T04:42:50.348Z,0.20
2022-11-12T04:43:50.367Z,0.30
2022-11-12T04:44:50.324Z,0.10
2022-11-12T04:45:50.343Z,0.30
2022-11-12T04:46:50.370Z,0.60
2022-11-12T04:47:50.332Z,0.60
2022-11-12T04:48:50.325Z,0.50
2022-11-12T04:49:50.339Z,0.40
2022-11-12T04:50:50.318Z,0.30
2022-11-12T04:51:50.354Z,0.30
2022-11-12T04:52:50.341Z,0.30
2022-11-12T04:53:50.302Z,0.20
2022-11-12T04:54:50.260Z,0.20
2022-11-12T04:55:50.310Z,0.10
2022-11-12T04:56:50.268Z,0.30
2022-11-12T04:57:50.232Z,0.30
2022-11-12T04:58:50.240Z,0.20
2022-11-12T04:59:50.218Z,0.10
2022-11-12T05:00:50.260Z,0.20
2022-11-12T05:01:50.239Z,0.30
2022-11-12T05:02:50.168Z,0.10
2022-11-12T05:03:50.146Z,0.20
2022-11-12T05:04:50.196Z,0.10
2022-11-12T05:05:50.139Z,0.10
2022-11-12T05:06:50.257Z,0.20
2022-11-12T05:07:50.164Z,0.60
2022-11-12T05:08:50.199Z,0.40
2022-11-12T05:09:50.116Z,0.20
2022-11-12T05:10:50.144Z,0.10
2022-11-12T05:11:50.139Z,0.40
2022-11-12T05:12:50.069Z,0.20
2022-11-12T05:13:51.040Z,0.60
2022-11-12T05:14:50.126Z,0.40
2022-11-12T05:15:50.049Z,0.30
2022-11-12T05:16:50.060Z,0.20
2022-11-12T05:17:50.064Z,0.30
2022-11-12T05:18:50.042Z,0.20
2022-11-12T05:19:49.995Z,0.30
2022-11-12T05:20:50.028Z,0.20
2022-11-12T05:21:49.991Z,0.20
2022-11-12T05:23:05.020Z,0.20
2022-11-12T05:23:52.053Z,0.20
2022-11-12T05:24:49.973Z,0.20
2022-11-12T05:25:49.979Z,0.10
2022-11-12T05:26:50.005Z,0.20
2022-11-12T05:27:50.285Z,0.00
2022-11-12T05:28:50.291Z,0.10
2022-11-12T05:29:50.103Z,0.20
2022-11-12T05:30:50.110Z,0.10
2022-11-12T07:13:35.120Z,0.10
2022-11-12T07:14:36.415Z,0.00
2022-11-12T07:15:36.514Z,0.10
2022-11-12T07:16:37.282Z,0.20
2022-11-12T07:17:36.574Z,0.20
2022-11-12T07:18:36.290Z,0.20
2022-11-12T07:19:36.285Z,0.20
2022-11-12T07:20:36.274Z,0.10
2022-11-12T07:21:36.312Z,0.30
2022-11-12T07:22:36.614Z,0.20
2022-11-12T07:23:36.225Z,0.10
2022-11-12T07:24:36.221Z,0.10
2022-11-12T07:25:36.297Z,0.30
2022-11-12T07:26:36.189Z,0.30
2022-11-12T07:27:36.613Z,0.10
2022-11-12T07:28:36.236Z,0.10
2022-11-12T07:29:47.574Z,0.30
2022-11-12T07:30:38.327Z,0.20
2022-11-12T07:31:36.339Z,0.20
2022-11-12T07:32:41.955Z,0.10
2022-11-12T07:33:38.229Z,0.10
2022-11-12T07:34:36.204Z,0.20
2022-11-12T07:35:36.148Z,0.00
2022-11-12T07:36:36.152Z,0.10
2022-11-12T07:37:36.106Z,0.10
2022-11-12T07:38:36.110Z,0.10
2022-11-12T07:39:36.211Z,0.20
2022-11-12T07:40:36.106Z,0.20
2022-11-12T07:41:36.109Z,0.30
2022-11-12T07:42:36.056Z,0.30
2022-11-12T07:43:36.111Z,0.10
2022-11-12T07:44:36.234Z,0.20
2022-11-12T07:45:36.053Z,0.10
2022-11-12T07:46:36.033Z,0.10
2022-11-12T07:47:35.990Z,0.10
2022-11-12T07:48:36.078Z,0.10
2022-11-12T07:49:36.033Z,0.10
2022-11-12T07:50:36.056Z,0.20
2022-11-12T07:51:36.786Z,0.10
2022-11-12T07:52:36.680Z,0.20
2022-11-12T07:53:36.186Z,0.20
2022-11-12T07:54:36.007Z,0.20
2022-11-12T07:55:36.022Z,0.20
2022-11-12T07:56:36.060Z,0.10
2022-11-12T07:57:36.047Z,0.30
2022-11-12T07:58:35.927Z,0.30
2022-11-12T07:59:35.892Z,0.20
2022-11-12T08:00:35.899Z,0.20
2022-11-12T08:01:36.164Z,0.20
2022-11-12T08:02:35.904Z,0.30
2022-11-12T08:03:35.895Z,0.50
2022-11-12T08:04:35.957Z,0.20
2022-11-12T08:05:35.836Z,0.10
2022-11-12T08:06:36.028Z,0.10
2022-11-12T08:07:35.855Z,0.20
2022-11-12T08:08:35.795Z,0.20
2022-11-12T08:09:35.896Z,0.40
2022-11-12T08:10:36.022Z,0.20
2022-11-12T08:11:35.892Z,0.20
2022-11-12T08:12:35.853Z,0.40
2022-11-12T08:13:35.700Z,0.10
2022-11-12T08:14:35.772Z,0.20
2022-11-12T08:15:35.814Z,0.40
2022-11-12T08:16:35.765Z,0.20
2022-11-12T08:17:35.691Z,0.20
2022-11-12T08:18:35.800Z,0.20
2022-11-12T08:19:35.761Z,0.20
2022-11-12T08:20:35.814Z,0.30
2022-11-12T08:21:35.882Z,0.10
2022-11-12T08:22:35.760Z,0.30
2022-11-12T08:23:35.796Z,0.10
2022-11-12T08:24:35.732Z,0.40
2022-11-12T08:25:35.729Z,0.20
2022-11-12T08:26:35.810Z,0.20
2022-11-12T08:27:35.768Z,0.40
2022-11-12T08:28:35.734Z,0.10
2022-11-12T08:29:35.627Z,0.20
2022-11-12T08:30:35.881Z,0.40
2022-11-12T08:31:35.738Z,0.20
2022-11-12T08:32:35.609Z,0.10
2022-11-12T08:33:35.625Z,0.20
2022-11-12T08:34:35.620Z,0.20
2022-11-12T08:35:35.662Z,0.20
2022-11-12T08:36:35.755Z,0.10
2022-11-12T08:37:35.516Z,0.10
2022-11-12T08:38:35.634Z,0.20
2022-11-12T08:39:35.629Z,0.10
2022-11-12T08:40:35.556Z,0.10
2022-11-12T08:41:35.518Z,0.40
2022-11-12T08:42:35.475Z,0.30
2022-11-12T08:43:35.507Z,0.30
2022-11-12T08:44:35.583Z,0.30
2022-11-12T08:45:35.472Z,0.20
2022-11-12T08:46:35.498Z,0.10
2022-11-12T08:47:35.476Z,0.10
2022-11-12T08:48:35.414Z,0.10
2022-11-12T08:49:35.411Z,0.10
2022-11-12T08:50:35.419Z,0.10
2022-11-12T08:51:35.510Z,0.10
2022-11-12T08:52:35.509Z,0.10
2022-11-12T08:53:35.520Z,0.20
2022-11-12T08:54:35.368Z,0.30
2022-11-12T08:55:35.358Z,0.10
2022-11-12T08:56:35.545Z,0.20
2022-11-12T08:57:35.364Z,0.10
2022-11-12T08:58:35.427Z,0.20
2022-11-12T08:59:35.475Z,0.20
2022-11-12T09:00:35.416Z,0.10
2022-11-12T09:01:36.770Z,0.40
2022-11-12T09:02:35.431Z,0.10
2022-11-12T09:03:35.254Z,0.30
2022-11-12T09:04:35.270Z,0.10
2022-11-12T09:05:35.311Z,0.40
2022-11-12T09:06:35.455Z,0.20
2022-11-12T09:07:49.295Z,0.30
2022-11-12T09:08:37.219Z,0.00
2022-11-12T09:09:38.949Z,0.20
2022-11-12T09:10:35.220Z,0.30
2022-11-12T09:11:35.351Z,0.10
2022-11-12T09:12:35.298Z,0.10
2022-11-12T09:13:35.237Z,0.10
2022-11-12T09:14:35.192Z,0.30
2022-11-12T09:15:37.922Z,0.10
2022-11-12T09:16:36.268Z,0.40
2022-11-12T09:17:35.299Z,0.50
2022-11-12T09:18:35.254Z,0.10
2022-11-12T09:19:38.721Z,0.10
2022-11-12T09:20:36.343Z,0.20
2022-11-12T09:21:35.259Z,0.30
2022-11-12T09:22:35.784Z,0.10
2022-11-12T09:23:35.047Z,0.40
2022-11-12T09:24:35.059Z,0.20
2022-11-12T09:25:35.010Z,0.10
2022-11-12T09:26:35.008Z,0.10
2022-11-12T09:27:35.255Z,0.40
2022-11-12T09:28:34.938Z,0.20
2022-11-12T09:29:34.961Z,0.20
2022-11-12T09:30:35.058Z,0.20
2022-11-12T09:32:07.418Z,0.30
2022-11-12T09:32:34.947Z,0.10
2022-11-12T09:33:34.901Z,0.20
2022-11-12T09:34:34.852Z,0.30
2022-11-12T09:35:34.791Z,0.10
2022-11-12T09:36:39.624Z,0.30
2022-11-12T09:37:36.864Z,0.30
2022-11-12T09:38:35.539Z,0.10
2022-11-12T09:39:34.760Z,0.30
2022-11-12T09:40:34.718Z,0.20
2022-11-12T09:41:34.809Z,0.30
2022-11-12T09:42:34.761Z,0.30
2022-11-12T09:43:34.700Z,0.30
2022-11-12T09:44:36.941Z,0.30
2022-11-12T09:45:35.684Z,0.40
2022-11-12T09:46:35.170Z,0.30
2022-11-12T09:47:35.470Z,0.10
2022-11-12T09:48:34.651Z,0.20
2022-11-12T09:49:34.637Z,0.40
2022-11-12T09:50:34.631Z,0.20
2022-11-12T09:51:34.652Z,0.10
2022-11-12T09:52:34.614Z,0.30
2022-11-12T09:53:34.721Z,0.20
2022-11-12T09:54:34.578Z,0.30
2022-11-12T09:55:34.547Z,0.40
2022-11-12T09:56:34.670Z,0.30
2022-11-12T09:57:34.610Z,0.10
2022-11-12T09:58:34.601Z,0.10
2022-11-12T09:59:35.109Z,0.30
2022-11-12T10:00:34.539Z,0.10
2022-11-12T10:01:34.578Z,0.30
2022-11-12T10:02:34.516Z,0.20
2022-11-12T10:03:34.493Z,0.10
2022-11-12T10:04:34.466Z,0.20
2022-11-12T10:05:34.477Z,0.30
2022-11-12T10:06:34.609Z,0.40
2022-11-12T10:07:34.486Z,0.30
2022-11-12T10:08:34.464Z,0.50
2022-11-12T10:09:34.602Z,0.10
2022-11-12T10:10:34.437Z,0.20
2022-11-12T10:11:34.446Z,0.40
2022-11-12T10:12:34.420Z,0.30
2022-11-12T10:13:34.399Z,0.20
2022-11-12T10:14:35.411Z,0.20
2022-11-12T10:15:34.369Z,0.20
2022-11-12T10:16:34.358Z,0.20
2022-11-12T10:17:34.331Z,0.40
2022-11-12T10:18:34.353Z,0.20
2022-11-12T10:19:34.323Z,0.30
2022-11-12T10:20:38.577Z,0.20
2022-11-12T10:21:35.331Z,0.30
2022-11-12T10:22:34.290Z,0.20
2022-11-12T10:23:34.285Z,0.30
2022-11-12T10:24:34.314Z,0.20
2022-11-12T10:25:34.357Z,0.20
2022-11-12T10:26:34.289Z,0.10
2022-11-12T10:27:34.249Z,0.10
2022-11-12T10:28:38.422Z,0.10
2022-11-12T10:29:35.224Z,0.10
2022-11-12T10:30:34.238Z,0.40
2022-11-12T10:31:34.228Z,0.20
2022-11-12T10:32:34.233Z,0.30
2022-11-12T10:33:34.186Z,0.20
2022-11-12T10:34:34.175Z,0.20
2022-11-12T10:35:34.175Z,0.20
2022-11-12T10:36:34.234Z,0.20
2022-11-12T10:37:34.221Z,0.30
2022-11-12T10:38:34.191Z,0.40
2022-11-12T10:39:34.156Z,0.40
2022-11-12T10:40:34.242Z,0.40
2022-11-12T10:41:34.269Z,0.30
2022-11-12T10:42:34.134Z,0.20
2022-11-12T10:43:34.102Z,0.20
2022-11-12T10:44:34.091Z,0.20
2022-11-12T10:45:34.144Z,0.10
2022-11-12T10:46:34.134Z,0.10
2022-11-12T10:47:34.098Z,0.20
2022-11-12T10:48:35.187Z,0.20
2022-11-12T10:49:34.084Z,0.40
2022-11-12T10:50:34.023Z,0.30
2022-11-12T10:51:34.036Z,0.20
2022-11-12T10:52:34.003Z,0.30
2022-11-12T10:53:34.003Z,0.30
2022-11-12T10:54:33.993Z,0.40
2022-11-12T10:55:33.978Z,0.40
2022-11-12T10:56:33.964Z,0.20
2022-11-12T10:57:34.029Z,0.30
2022-11-12T10:58:33.973Z,0.30
2022-11-12T10:59:33.971Z,0.50
2022-11-12T11:00:33.927Z,0.30
2022-11-12T11:01:35.805Z,0.10
2022-11-12T11:02:34.929Z,0.50
2022-11-12T11:03:33.901Z,0.20
2022-11-12T11:04:33.889Z,0.20
2022-11-12T11:05:33.885Z,0.60
2022-11-12T11:06:33.852Z,0.20
2022-11-12T11:07:33.921Z,0.40
2022-11-12T11:08:36.196Z,0.20
2022-11-12T11:09:34.816Z,0.30
2022-11-12T11:10:33.852Z,0.50
2022-11-12T11:11:33.797Z,0.40
2022-11-12T11:12:33.833Z,0.10
2022-11-12T11:13:33.843Z,0.40
2022-11-12T11:14:33.792Z,0.30
2022-11-12T11:15:33.764Z,0.20
2022-11-12T11:16:33.783Z,0.40
2022-11-12T11:17:33.774Z,0.20
2022-11-12T11:18:33.747Z,0.30
2022-11-12T11:19:33.749Z,0.40
2022-11-12T11:20:33.714Z,0.30
2022-11-12T11:21:37.901Z,0.30
2022-11-12T11:22:34.745Z,0.30
2022-11-12T11:23:33.710Z,0.40
2022-11-12T11:24:33.714Z,0.30
2022-11-12T11:25:33.685Z,0.20
2022-11-12T11:26:33.672Z,0.30
2022-11-12T11:27:33.676Z,0.50
2022-11-12T11:28:33.628Z,0.20
2022-11-12T11:29:34.699Z,0.70
2022-11-12T11:30:33.628Z,0.20
2022-11-12T11:31:33.613Z,0.50
2022-11-12T11:32:37.459Z,0.50
2022-11-12T11:33:34.619Z,0.10
2022-11-12T11:34:33.618Z,0.40
2022-11-12T11:35:33.613Z,0.40
2022-11-12T11:36:33.581Z,0.50
2022-11-12T11:37:33.609Z,0.60
2022-11-12T11:38:33.541Z,0.50
2022-11-12T11:39:33.561Z,0.50
2022-11-12T11:40:33.538Z,0.50
2022-11-12T11:41:33.511Z,0.70
2022-11-12T11:42:33.549Z,0.40
2022-11-12T11:43:33.498Z,0.60
2022-11-12T11:44:33.493Z,0.40
2022-11-12T11:45:34.139Z,0.30
2022-11-12T11:46:33.502Z,0.20
2022-11-12T11:47:50.441Z,0.50
2022-11-12T11:48:35.470Z,0.40
2022-11-12T11:49:33.442Z,0.20
2022-11-12T11:50:33.406Z,0.40
2022-11-12T11:51:33.430Z,0.20
2022-11-12T11:52:33.442Z,0.70
2022-11-12T11:53:33.437Z,0.50
2022-11-12T11:54:33.381Z,0.60
2022-11-12T11:55:33.379Z,0.40
2022-11-12T11:56:33.348Z,0.40
2022-11-12T11:57:33.370Z,0.60
2022-11-12T11:58:33.331Z,0.50
2022-11-12T12:03:32.741Z,0.40
2022-11-12T12:04:30.667Z,1.70
2022-11-12T12:05:32.160Z,1.10
2022-11-12T12:06:40.604Z,1.50
2022-11-12T12:09:32.882Z,2.30
2022-11-12T12:09:51.558Z,1.90
2022-11-12T12:10:53.759Z,2.30
2022-11-12T12:11:34.219Z,2.30
2022-11-12T12:15:11.075Z,3.30
2022-11-12T12:15:28.369Z,3.90
2022-11-12T12:18:02.056Z,3.90
2022-11-12T12:18:59.194Z,4.60
2022-11-12T12:19:41.848Z,4.40
2022-11-12T12:21:08.594Z,4.20
2022-11-12T12:24:46.185Z,4.90
2022-11-12T12:25:51.825Z,4.40
2022-11-12T12:26:59.878Z,4.70
2022-11-12T12:27:49.378Z,4.30
2022-11-12T12:33:47.131Z,4.70
2022-11-12T12:35:16.486Z,5.10
2022-11-12T12:35:48.591Z,4.70
2022-11-12T12:52:32.727Z,4.80
2022-11-12T13:04:17.584Z,5.00
2022-11-12T13:10:12.113Z,4.90
2022-11-12T13:23:27.898Z,4.30
2022-11-12T13:32:08.756Z,3.90
2022-11-12T13:38:12.241Z,4.10
2022-11-12T13:42:01.448Z,4.00
2022-11-12T13:57:47.081Z,3.80
2022-11-12T14:12:11.300Z,4.10
2022-11-12T14:23:31.374Z,4.30
2022-11-12T14:24:36.504Z,4.80
2022-11-12T14:25:33.417Z,5.20
2022-11-12T14:26:33.559Z,4.60
2022-11-12T14:27:33.634Z,4.60
2022-11-12T14:28:33.651Z,4.60
2022-11-12T14:29:35.998Z,4.90
2022-11-12T14:30:36.052Z,4.40
2022-11-12T14:31:32.603Z,4.90
2022-11-12T14:32:33.113Z,4.90
2022-11-12T14:33:34.376Z,4.80
2022-11-12T14:34:32.533Z,5.20
2022-11-12T14:35:32.981Z,4.50
2022-11-12T14:36:32.712Z,4.40
2022-11-12T14:37:32.271Z,4.70
2022-11-12T14:38:32.724Z,4.60
2022-11-12T14:39:32.349Z,4.80
2022-11-12T14:40:33.500Z,5.00
2022-11-12T14:41:32.540Z,4.70
2022-11-12T14:42:32.850Z,5.00
2022-11-12T14:43:35.217Z,4.80
2022-11-12T14:44:33.994Z,4.50
2022-11-12T14:45:35.074Z,4.70
2022-11-12T14:46:37.825Z,4.90
2022-11-12T14:47:33.704Z,4.40
2022-11-12T14:48:32.175Z,4.80
2022-11-12T14:49:42.365Z,4.50
2022-11-12T14:50:39.200Z,4.60
2022-11-12T14:51:35.281Z,4.80
2022-11-12T14:52:33.547Z,4.40
2022-11-12T14:53:34.611Z,4.60
2022-11-12T14:54:34.916Z,4.90
2022-11-12T14:56:10.021Z,4.20
2022-11-12T15:03:35.074Z,4.90
2022-11-12T15:07:29.778Z,5.00
2022-11-12T15:08:21.576Z,4.50
2022-11-12T15:09:04.952Z,5.20
2022-11-12T15:09:41.613Z,4.80
2022-11-12T15:11:03.602Z,4.80
2022-11-12T15:12:33.382Z,4.90
2022-11-12T15:13:47.163Z,4.80
2022-11-12T15:18:02.847Z,5.00
2022-11-12T15:19:05.230Z,5.00
2022-11-12T15:20:08.992Z,5.30
2022-11-12T15:21:06.186Z,4.90
2022-11-12T15:22:08.590Z,5.40
2022-11-12T15:23:45.640Z,4.80
2022-11-12T15:24:51.781Z,4.60
2022-11-12T15:30:04.591Z,4.90
2022-11-12T15:31:13.748Z,5.30
2022-11-12T15:32:29.756Z,4.90
2022-11-12T15:33:58.661Z,4.80
2022-11-12T15:36:23.419Z,5.40
2022-11-12T15:37:18.929Z,5.50
2022-11-12T15:38:24.481Z,5.50
2022-11-12T15:38:45.259Z,4.80
2022-11-12T15:39:55.676Z,5.80
2022-11-12T15:40:33.833Z,5.60
2022-11-12T15:41:41.707Z,6.00
2022-11-12T15:48:59.816Z,5.80
2022-11-12T15:52:30.884Z,5.80
2022-11-12T15:53:34.654Z,5.90
2022-11-12T15:54:33.647Z,7.50
2022-11-12T15:55:40.222Z,16.20
2022-11-12T15:58:06.214Z,6.50
2022-11-12T15:59:22.337Z,6.40
2022-11-12T16:02:20.302Z,6.30
2022-11-12T16:03:20.207Z,6.10
2022-11-12T16:04:24.095Z,5.90
2022-11-12T16:07:07.068Z,6.70
2022-11-12T16:08:09.847Z,6.60
2022-11-12T16:09:07.832Z,6.90
2022-11-12T16:10:08.380Z,7.20
2022-11-12T16:12:05.959Z,7.60
2022-11-12T16:14:42.030Z,6.90
2022-11-12T16:15:41.369Z,7.00
2022-11-12T16:16:41.975Z,7.30
2022-11-12T16:18:21.441Z,6.20
2022-11-12T16:20:52.100Z,6.30
2022-11-12T16:21:52.114Z,6.40
2022-11-12T16:22:51.837Z,7.30
2022-11-12T16:23:51.768Z,6.70
2022-11-12T16:29:13.627Z,7.40
2022-11-12T16:31:07.824Z,8.10
2022-11-12T16:34:11.762Z,6.50
2022-11-12T16:36:30.254Z,27.20
2022-11-12T16:41:17.260Z,7.90
2022-11-12T16:42:23.056Z,9.10
2022-11-12T16:43:25.720Z,8.60
2022-11-12T16:46:30.538Z,11.20
2022-11-12T16:48:05.913Z,11.40
2022-11-12T16:50:24.271Z,7.20
2022-11-12T16:51:32.399Z,7.00
2022-11-12T16:55:14.280Z,33.10
2022-11-12T16:58:13.929Z,9.80
2022-11-12T17:01:28.071Z,6.00
2022-11-12T17:08:02.580Z,6.10
2022-11-12T17:13:11.796Z,5.50
2022-11-12T17:17:24.753Z,6.20
2022-11-12T17:22:11.297Z,5.50
2022-11-12T17:31:16.999Z,5.40
2022-11-12T17:36:25.963Z,4.90
2022-11-12T17:42:04.079Z,4.90
2022-11-12T17:50:14.399Z,5.10
2022-11-12T17:54:57.469Z,5.20
2022-11-12T18:00:43.971Z,5.30
2022-11-12T18:01:43.926Z,4.90
2022-11-12T18:02:43.887Z,5.20
2022-11-12T18:03:43.877Z,5.00
2022-11-12T18:04:43.861Z,5.10
2022-11-12T18:05:43.890Z,4.90
2022-11-12T18:06:45.090Z,4.90
2022-11-12T18:07:45.041Z,4.50
2022-11-12T18:08:45.019Z,5.10
2022-11-12T18:09:44.940Z,4.30
2022-11-12T18:10:44.939Z,4.50
2022-11-12T18:11:44.892Z,4.50
2022-11-12T18:12:44.902Z,4.60
2022-11-12T18:13:44.926Z,4.50
2022-11-12T18:14:44.889Z,4.80
2022-11-12T18:15:44.884Z,4.40
2022-11-12T18:16:44.955Z,4.50
2022-11-12T18:17:44.876Z,4.30
2022-11-12T18:18:44.870Z,4.40
2022-11-12T18:19:44.885Z,4.60
2022-11-12T18:20:44.836Z,4.60
2022-11-12T18:21:44.834Z,4.10
2022-11-12T18:22:45.251Z,4.20
2022-11-12T18:23:45.837Z,4.10
2022-11-12T18:24:44.776Z,4.60
2022-11-12T18:25:44.805Z,4.20
2022-11-12T18:26:44.770Z,4.00
2022-11-12T18:27:44.793Z,4.10
2022-11-12T18:28:44.787Z,4.30
2022-11-12T18:29:44.753Z,4.20
2022-11-12T18:30:44.738Z,4.00
2022-11-12T18:31:44.732Z,3.90
2022-11-12T18:32:44.785Z,3.90
2022-11-12T18:33:44.755Z,4.60
2022-11-12T18:34:44.712Z,4.20
2022-11-12T18:35:44.732Z,4.60
2022-11-12T18:36:44.686Z,5.00
2022-11-12T18:37:44.644Z,4.70
2022-11-12T18:38:44.667Z,5.00
2022-11-12T18:39:44.642Z,5.70
2022-11-12T18:40:44.633Z,5.80
2022-11-12T18:41:44.659Z,5.50
2022-11-12T18:42:44.641Z,6.00
2022-11-12T18:43:44.679Z,5.50
2022-11-12T18:44:44.588Z,5.50
2022-11-12T18:45:44.590Z,5.20
2022-11-12T18:46:44.574Z,6.10
2022-11-12T18:47:44.546Z,5.90
2022-11-12T18:48:44.674Z,7.00
2022-11-12T18:49:44.554Z,7.00
2022-11-12T18:50:44.566Z,6.90
2022-11-12T18:51:44.524Z,7.00
2022-11-12T18:52:44.546Z,6.60
2022-11-12T18:53:44.540Z,6.10
2022-11-12T18:54:44.521Z,5.90
2022-11-12T18:55:44.565Z,5.60
2022-11-12T18:56:44.484Z,5.00
2022-11-12T18:57:44.463Z,4.60
2022-11-12T18:58:44.502Z,4.40